Time;durP1;ratioP1;P1;durP2;ratioP2;P2;SDS_P1;SDS_P2;PMS_P1;PMS_P2;Temp;Humidity;BMP_temperature;BMP_pressure;BME280_temperature;BME280_humidity;BME280_pressure;Samples;Min_cycle;Max_cycle;Signal;HPM_P1;HPM_P2
2021/01/11 00:00:08;;;;;;;;;;;;;;;22.87;23.98;97866.63;5142101;27;940;-74
2021/01/11 00:02:33;;;;;;;;;;;;;;;22.53;24.37;97869.41;5141776;27;640;-74
2021/01/11 00:04:59;;;;;;;;;;;;;;;21.83;25.39;97863.44;5141807;27;702;-74
2021/01/11 00:07:24;;;;;;;;;;;;;;;20.60;27.18;97852.22;5141883;27;694;-74
2021/01/11 00:09:50;;;;;;;;;;;;;;;21.06;26.82;97865.16;5141592;27;1968;-74
2021/01/11 00:12:15;;;;;;;;;;;;;;;22.08;25.66;97864.72;5141419;27;871;-74
2021/01/11 00:14:41;;;;;;;;;;;;;;;22.43;24.68;97859.19;5142000;27;852;-74
2021/01/11 00:17:12;;;;;;;;;;;;;;;22.64;24.50;97875.53;5141562;27;702;-74
2021/01/11 00:19:37;;;;;;;;;;;;;;;22.73;24.63;97906.03;5141596;27;722;-74
2021/01/11 00:22:03;;;;;;;;;;;;;;;22.93;23.95;97894.47;5141927;27;654;-74
2021/01/11 00:24:28;;;;;;;;;;;;;;;22.77;24.29;97867.78;5141349;27;960;-74
2021/01/11 00:26:56;;;;;;;;;;;;;;;21.67;25.79;97863.50;5141460;27;827;-73
2021/01/11 00:29:21;;;;;;;;;;;;;;;21.38;26.16;97843.69;5141760;27;888;-74
2021/01/11 00:31:46;;;;;;;;;;;;;;;21.85;25.95;97843.94;5141335;27;1978;-74
2021/01/11 00:34:12;;;;;;;;;;;;;;;22.29;24.88;97844.25;5141588;27;644;-74
2021/01/11 00:36:38;;;;;;;;;;;;;;;22.48;24.71;97816.88;5141682;27;660;-74
2021/01/11 00:39:03;;;;;;;;;;;;;;;22.57;24.66;97802.03;5141348;27;1038;-74
2021/01/11 00:41:29;;;;;;;;;;;;;;;22.62;24.70;97805.06;5140914;27;897;-74
2021/01/11 00:43:54;;;;;;;;;;;;;;;22.73;24.22;97793.38;5141762;27;824;-74
2021/01/11 00:46:21;;;;;;;;;;;;;;;22.75;24.44;97812.78;5141332;27;681;-74
2021/01/11 00:48:46;;;;;;;;;;;;;;;22.55;24.49;97813.84;5123494;28;1193;-74
2021/01/11 00:51:12;;;;;;;;;;;;;;;21.29;25.94;97827.34;5123331;28;1905;-74
2021/01/11 00:53:37;;;;;;;;;;;;;;;21.36;26.00;97868.06;5140932;28;843;-74
2021/01/11 00:56:03;;;;;;;;;;;;;;;22.01;25.77;97910.25;5122611;28;957;-74
2021/01/11 00:58:30;;;;;;;;;;;;;;;22.40;24.91;97928.94;5123110;28;1158;-74
2021/01/11 01:00:56;;;;;;;;;;;;;;;22.71;24.38;97925.56;5142919;27;657;-74
2021/01/11 01:03:28;;;;;;;;;;;;;;;22.66;24.38;97941.09;5127898;27;1321;-74
2021/01/11 01:05:53;;;;;;;;;;;;;;;22.74;24.44;97928.28;5145293;27;665;-74
2021/01/11 01:08:18;;;;;;;;;;;;;;;22.78;24.53;97888.44;5144888;27;903;-74
2021/01/11 01:10:44;;;;;;;;;;;;;;;22.22;24.67;97877.66;5144935;27;1973;-74
2021/01/11 01:13:09;;;;;;;;;;;;;;;21.14;26.41;97887.59;5145432;27;870;-74
2021/01/11 01:15:35;;;;;;;;;;;;;;;21.57;25.77;97895.75;5145420;27;709;-74
2021/01/11 01:18:00;;;;;;;;;;;;;;;21.45;26.03;97893.66;5145155;27;702;-74
2021/01/11 01:20:26;;;;;;;;;;;;;;;22.15;25.55;97901.38;5145054;27;665;-74
2021/01/11 01:22:51;;;;;;;;;;;;;;;22.54;24.63;97907.88;5144544;27;1133;-74
2021/01/11 01:25:17;;;;;;;;;;;;;;;22.75;24.52;97897.88;5144757;27;847;-74
2021/01/11 01:27:42;;;;;;;;;;;;;;;22.88;24.20;97868.25;5127039;27;943;-74
2021/01/11 01:30:08;;;;;;;;;;;;;;;22.99;24.04;97867.09;5145098;27;1893;-74
2021/01/11 01:32:34;;;;;;;;;;;;;;;22.93;24.33;97851.91;5144886;27;701;-74
2021/01/11 01:34:59;;;;;;;;;;;;;;;22.74;24.20;97840.34;5145038;27;694;-74
2021/01/11 01:37:24;;;;;;;;;;;;;;;21.87;25.25;97851.22;5144665;27;1063;-74
2021/01/11 01:39:50;;;;;;;;;;;;;;;21.46;25.88;97844.31;5144504;27;867;-74
2021/01/11 01:42:15;;;;;;;;;;;;;;;21.62;26.14;97835.75;5144518;27;816;-74
2021/01/11 01:44:41;;;;;;;;;;;;;;;22.60;24.45;97818.13;5144546;27;681;-74
2021/01/11 01:47:06;;;;;;;;;;;;;;;22.60;24.51;97812.47;5144642;27;670;-74
2021/01/11 01:49:31;;;;;;;;;;;;;;;22.43;24.87;97828.81;5144469;27;662;-74
2021/01/11 01:51:59;;;;;;;;;;;;;;;22.80;24.18;97838.53;5144298;27;1909;-74
2021/01/11 01:54:24;;;;;;;;;;;;;;;22.76;24.51;97854.84;5144152;27;956;-74
2021/01/11 01:56:50;;;;;;;;;;;;;;;22.88;24.01;97862.56;5126528;27;783;-74
2021/01/11 01:59:15;;;;;;;;;;;;;;;21.71;25.63;97863.38;5144300;27;674;-74
2021/01/11 02:01:41;;;;;;;;;;;;;;;22.05;24.98;97854.28;5126566;27;573;-74
2021/01/11 02:04:06;;;;;;;;;;;;;;;21.37;26.12;97858.31;5144467;27;694;-74
2021/01/11 02:06:33;;;;;;;;;;;;;;;22.22;25.09;97855.78;5143875;27;823;-74
2021/01/11 02:09:02;;;;;;;;;;;;;;;22.60;24.57;97835.16;5143890;27;872;-74
2021/01/11 02:11:40;;;;;;;;;;;;;;;22.68;24.34;97836.47;5143454;27;1931;-74
2021/01/11 02:14:06;;;;;;;;;;;;;;;22.75;24.60;97832.63;5143601;27;727;-74
2021/01/11 02:16:38;;;;;;;;;;;;;;;22.98;24.20;97820.09;5144190;27;686;-74
2021/01/11 02:19:23;;;;;;;;;;;;;;;22.65;24.36;97826.06;5143874;27;654;-74
2021/01/11 02:21:51;;;;;;;;;;;;;;;21.50;25.79;97819.50;5102124;27;1046;-74
2021/01/11 02:24:36;;;;;;;;;;;;;;;21.68;25.48;97811.28;5143287;27;1171;-74
2021/01/11 02:27:19;;;;;;;;;;;;;;;21.81;26.21;97823.44;5143809;27;689;-74
2021/01/11 02:30:04;;;;;;;;;;;;;;;22.54;24.53;97831.31;5143734;27;1976;-74
2021/01/11 02:32:29;;;;;;;;;;;;;;;22.93;23.94;97829.19;5143578;27;682;-74
2021/01/11 02:34:55;;;;;;;;;;;;;;;22.79;24.37;97819.09;5143718;27;595;-74
2021/01/11 02:37:20;;;;;;;;;;;;;;;22.69;24.25;97809.72;5125751;27;929;-74
2021/01/11 02:39:46;;;;;;;;;;;;;;;21.63;25.67;97813.88;5143457;27;788;-74
2021/01/11 02:42:11;;;;;;;;;;;;;;;21.15;26.23;97805.13;5143819;27;952;-74
2021/01/11 02:44:37;;;;;;;;;;;;;;;21.43;26.42;97799.91;5143686;27;677;-74
2021/01/11 02:47:02;;;;;;;;;;;;;;;22.32;25.25;97772.47;5143329;27;663;-75
2021/01/11 02:49:29;;;;;;;;;;;;;;;22.63;24.61;97766.16;5143738;27;673;-74
2021/01/11 02:52:06;;;;;;;;;;;;;;;22.67;24.37;97758.31;5125419;27;1987;-74
2021/01/11 02:54:38;;;;;;;;;;;;;;;22.70;24.59;97748.91;5125400;27;973;-74
2021/01/11 02:57:08;;;;;;;;;;;;;;;22.66;24.27;97736.91;5125392;27;638;-74
2021/01/11 02:59:38;;;;;;;;;;;;;;;21.59;25.56;97734.72;5125662;27;642;-74
2021/01/11 03:02:05;;;;;;;;;;;;;;;21.30;26.13;97732.75;5125569;27;642;-74
2021/01/11 03:04:31;;;;;;;;;;;;;;;21.46;26.49;97734.72;5124739;27;939;-74
2021/01/11 03:07:00;;;;;;;;;;;;;;;22.26;25.01;97730.97;5124613;27;1302;-74
2021/01/11 03:09:26;;;;;;;;;;;;;;;22.52;24.53;97726.03;5142943;27;911;-74
2021/01/11 03:11:51;;;;;;;;;;;;;;;22.69;24.33;97707.63;5142834;27;1982;-74
2021/01/11 03:14:17;;;;;;;;;;;;;;;22.68;24.59;97706.03;5142902;27;622;-74
2021/01/11 03:16:42;;;;;;;;;;;;;;;22.99;24.06;97702.50;5143066;27;586;-74
2021/01/11 03:19:08;;;;;;;;;;;;;;;21.82;25.67;97720.25;5143032;27;610;-74
2021/01/11 03:21:34;;;;;;;;;;;;;;;21.18;26.45;97733.47;5142426;27;883;-74
2021/01/11 03:23:59;;;;;;;;;;;;;;;21.42;26.74;97733.22;5142105;27;975;-74
2021/01/11 03:26:24;;;;;;;;;;;;;;;22.17;25.50;97728.03;5142825;27;840;-74
2021/01/11 03:28:50;;;;;;;;;;;;;;;22.42;24.81;97736.50;5142908;27;690;-74
2021/01/11 03:31:16;;;;;;;;;;;;;;;22.76;24.24;97732.88;5142348;27;1970;-74
2021/01/11 03:33:41;;;;;;;;;;;;;;;22.73;24.61;97713.94;5142433;27;700;-74
2021/01/11 03:36:06;;;;;;;;;;;;;;;22.77;24.37;97725.16;5142136;27;966;-74
2021/01/11 03:38:32;;;;;;;;;;;;;;;22.71;24.60;97722.13;5142345;27;871;-74
2021/01/11 03:41:01;;;;;;;;;;;;;;;21.85;25.34;97736.31;5142233;27;954;-74
2021/01/11 03:43:26;;;;;;;;;;;;;;;21.26;26.29;97740.53;5142296;27;730;-74
2021/01/11 03:45:52;;;;;;;;;;;;;;;20.93;26.94;97734.19;5142538;27;669;-75
2021/01/11 03:48:17;;;;;;;;;;;;;;;22.15;25.46;97705.84;5142485;27;637;-74
2021/01/11 03:50:43;;;;;;;;;;;;;;;22.42;24.97;97690.34;5142118;27;1960;-74
2021/01/11 03:53:11;;;;;;;;;;;;;;;22.58;24.51;97688.13;5141769;27;838;-74
2021/01/11 03:55:40;;;;;;;;;;;;;;;22.73;24.63;97679.91;5142253;27;935;-74
2021/01/11 03:58:06;;;;;;;;;;;;;;;22.75;24.67;97683.09;5141951;27;627;-74
2021/01/11 04:00:31;;;;;;;;;;;;;;;22.94;24.19;97695.38;5142368;27;701;-74
2021/01/11 04:02:57;;;;;;;;;;;;;;;22.19;24.98;97681.00;5141839;27;682;-74
2021/01/11 04:05:22;;;;;;;;;;;;;;;21.71;25.54;97682.97;5141760;27;1008;-74
2021/01/11 04:07:47;;;;;;;;;;;;;;;21.19;26.73;97684.16;5141902;27;892;-74
2021/01/11 04:10:13;;;;;;;;;;;;;;;22.05;25.69;97684.28;5141577;27;1902;-74
2021/01/11 04:12:38;;;;;;;;;;;;;;;22.49;25.00;97670.28;5141717;27;658;-74
2021/01/11 04:15:04;;;;;;;;;;;;;;;22.59;24.85;97671.94;5141997;27;658;-74
2021/01/11 04:17:29;;;;;;;;;;;;;;;22.90;24.19;97668.41;5141676;27;599;-74
2021/01/11 04:19:55;;;;;;;;;;;;;;;22.90;24.14;97668.41;5141210;27;816;-74
2021/01/11 04:22:20;;;;;;;;;;;;;;;23.02;24.06;97681.75;5141313;27;902;-74
2021/01/11 04:24:46;;;;;;;;;;;;;;;21.16;26.38;97684.25;5141574;27;1202;-74
2021/01/11 04:27:11;;;;;;;;;;;;;;;21.36;25.96;97701.84;5141495;27;701;-74
2021/01/11 04:29:37;;;;;;;;;;;;;;;20.96;26.92;97715.53;5141810;27;649;-74
2021/01/11 04:32:02;;;;;;;;;;;;;;;21.97;25.79;97714.91;5141290;27;1910;-74
2021/01/11 04:34:28;;;;;;;;;;;;;;;22.45;25.04;97720.63;5141101;27;904;-74
2021/01/11 04:36:53;;;;;;;;;;;;;;;22.62;25.00;97713.53;5140930;27;883;-74
2021/01/11 04:39:18;;;;;;;;;;;;;;;22.73;24.71;97722.44;5141249;27;816;-74
2021/01/11 04:41:44;;;;;;;;;;;;;;;22.85;24.23;97727.31;5141606;27;657;-74
2021/01/11 04:44:10;;;;;;;;;;;;;;;22.61;24.77;97734.66;5123599;27;669;-73
2021/01/11 04:46:35;;;;;;;;;;;;;;;21.43;26.16;97735.59;5123407;27;590;-74
2021/01/11 04:49:01;;;;;;;;;;;;;;;21.21;26.76;97749.56;5140863;27;942;-73
2021/01/11 04:51:26;;;;;;;;;;;;;;;21.47;26.52;97775.13;5123458;28;1901;-74
2021/01/11 04:53:54;;;;;;;;;;;;;;;22.00;25.83;97781.19;5138062;28;1626;-75
2021/01/11 04:56:20;;;;;;;;;;;;;;;22.50;25.12;97785.25;5115583;28;1585;-75
2021/01/11 04:58:51;;;;;;;;;;;;;;;22.66;24.66;97790.00;5120580;28;1565;-75
2021/01/11 05:01:18;;;;;;;;;;;;;;;22.88;24.50;97799.38;5120493;28;1050;-76
2021/01/11 05:03:43;;;;;;;;;;;;;;;22.75;24.63;97776.69;5102940;28;954;-76
2021/01/11 05:06:09;;;;;;;;;;;;;;;22.39;24.59;97767.81;5120480;28;944;-75
2021/01/11 05:08:34;;;;;;;;;;;;;;;21.72;25.74;97778.00;5103036;28;667;-75
2021/01/11 05:11:00;;;;;;;;;;;;;;;21.22;26.56;97753.97;5132297;28;1992;-76
2021/01/11 05:13:25;;;;;;;;;;;;;;;21.44;26.89;97744.88;5141053;28;595;-75
2021/01/11 05:15:53;;;;;;;;;;;;;;;22.32;25.23;97746.94;5141164;28;863;-76
2021/01/11 05:18:19;;;;;;;;;;;;;;;22.48;24.87;97748.84;5140781;28;821;-76
2021/01/11 05:20:44;;;;;;;;;;;;;;;22.65;24.69;97746.66;5141294;28;844;-75
2021/01/11 05:23:13;;;;;;;;;;;;;;;22.85;24.45;97737.88;5134929;28;1510;-75
2021/01/11 05:25:39;;;;;;;;;;;;;;;22.77;24.50;97742.19;5130964;28;1573;-76
2021/01/11 05:28:11;;;;;;;;;;;;;;;21.53;25.65;97767.66;5141275;28;661;-76
2021/01/11 05:30:46;;;;;;;;;;;;;;;21.32;26.51;97784.03;5140617;28;1902;-76
2021/01/11 05:33:17;;;;;;;;;;;;;;;21.87;26.20;97777.56;5140484;28;890;-76
2021/01/11 05:35:43;;;;;;;;;;;;;;;22.28;25.36;97793.69;5140610;28;1529;-75
2021/01/11 05:38:15;;;;;;;;;;;;;;;22.55;24.64;97798.88;5120705;28;1652;-75
2021/01/11 05:40:41;;;;;;;;;;;;;;;22.74;24.39;97800.66;5120617;28;1478;-75
2021/01/11 05:43:06;;;;;;;;;;;;;;;22.72;24.58;97785.31;5120216;28;699;-76
2021/01/11 05:45:35;;;;;;;;;;;;;;;22.81;24.50;97783.38;5120172;28;1155;-75
2021/01/11 05:48:04;;;;;;;;;;;;;;;22.41;25.02;97779.50;5123092;28;922;-76
2021/01/11 05:50:34;;;;;;;;;;;;;;;21.25;26.86;97783.44;5124139;27;1984;-75
2021/01/11 05:52:59;;;;;;;;;;;;;;;21.50;26.46;97765.72;5144849;27;626;-76
2021/01/11 05:55:29;;;;;;;;;;;;;;;22.21;25.56;97769.19;5144590;27;693;-76
2021/01/11 05:58:01;;;;;;;;;;;;;;;22.49;25.12;97756.13;5127319;27;630;-76
2021/01/11 06:00:28;;;;;;;;;;;;;;;22.80;24.50;97747.75;5144139;27;939;-76
2021/01/11 06:02:54;;;;;;;;;;;;;;;22.91;24.40;97766.47;5143975;27;895;-76
2021/01/11 06:05:19;;;;;;;;;;;;;;;22.77;24.66;97760.00;5143950;27;1557;-76
2021/01/11 06:07:45;;;;;;;;;;;;;;;22.76;24.44;97743.44;5144736;27;657;-76
2021/01/11 06:10:11;;;;;;;;;;;;;;;22.05;25.59;97729.63;5125875;27;1897;-76
2021/01/11 06:12:37;;;;;;;;;;;;;;;21.38;26.39;97721.22;5144225;27;623;-76
2021/01/11 06:15:02;;;;;;;;;;;;;;;22.00;25.63;97721.69;5126378;27;1142;-75
2021/01/11 06:17:30;;;;;;;;;;;;;;;21.73;26.12;97745.59;5144173;27;927;-76
2021/01/11 06:19:56;;;;;;;;;;;;;;;22.20;25.63;97749.81;5143971;27;1463;-76
2021/01/11 06:22:22;;;;;;;;;;;;;;;22.51;24.86;97755.66;5124615;27;1522;-75
2021/01/11 06:24:47;;;;;;;;;;;;;;;22.74;24.70;97760.94;5108887;28;1508;-76
2021/01/11 06:27:16;;;;;;;;;;;;;;;22.63;24.77;97777.50;5103194;28;1588;-75
2021/01/11 06:29:47;;;;;;;;;;;;;;;22.56;24.87;97797.59;5102534;28;883;-76
2021/01/11 06:32:21;;;;;;;;;;;;;;;21.82;25.80;97805.19;5102472;28;1910;-76
2021/01/11 06:34:47;;;;;;;;;;;;;;;20.73;27.32;97776.75;5102686;28;1042;-76
2021/01/11 06:37:19;;;;;;;;;;;;;;;21.77;26.33;97785.94;5102893;28;669;-75
2021/01/11 06:39:45;;;;;;;;;;;;;;;22.26;25.25;97782.78;5102649;28;629;-76
2021/01/11 06:42:11;;;;;;;;;;;;;;;22.52;24.97;97809.06;5102214;28;712;-76
2021/01/11 06:44:38;;;;;;;;;;;;;;;22.65;24.87;97803.38;5102376;28;889;-76
2021/01/11 06:47:04;;;;;;;;;;;;;;;22.83;24.74;97797.88;5107680;28;1592;-75
2021/01/11 06:49:30;;;;;;;;;;;;;;;22.84;24.72;97805.13;5115100;28;1580;-76
2021/01/11 06:52:05;;;;;;;;;;;;;;;22.76;24.58;97814.34;5117694;27;1905;-74
2021/01/11 06:54:48;;;;;;;;;;;;;;;21.58;25.88;97829.38;5102650;28;686;-76
2021/01/11 06:57:16;;;;;;;;;;;;;;;20.61;27.21;97814.22;5102342;28;698;-74
2021/01/11 06:59:42;;;;;;;;;;;;;;;21.68;26.59;97805.63;5101162;28;943;-74
2021/01/11 07:02:17;;;;;;;;;;;;;;;22.40;25.12;97815.56;5101350;28;825;-76
2021/01/11 07:04:44;;;;;;;;;;;;;;;22.54;25.16;97809.41;5120627;28;1091;-75
2021/01/11 07:07:10;;;;;;;;;;;;;;;22.72;24.75;97803.13;5122743;28;705;-76
2021/01/11 07:09:35;;;;;;;;;;;;;;;22.82;24.44;97784.16;5112731;28;1633;-75
2021/01/11 07:12:04;;;;;;;;;;;;;;;22.94;24.35;97780.50;5101261;28;1987;-75
2021/01/11 07:14:48;;;;;;;;;;;;;;;21.46;26.37;97770.72;5102012;28;832;-76
2021/01/11 07:17:31;;;;;;;;;;;;;;;20.73;27.18;97787.28;5101717;28;891;-76
2021/01/11 07:19:56;;;;;;;;;;;;;;;21.47;27.15;97814.75;5101163;28;1431;-76
2021/01/11 07:22:28;;;;;;;;;;;;;;;22.40;25.56;97821.22;5143099;22;3563;-75
2021/01/11 07:25:08;;;;;;;;;;;;;;;22.59;25.56;97831.53;5122226;28;966;-75
2021/01/11 07:27:40;;;;;;;;;;;;;;;22.22;26.15;97821.00;5092932;28;1494;-75
2021/01/11 07:30:06;;;;;;;;;;;;;;;21.34;27.35;97814.69;5117271;28;1902;-74
2021/01/11 07:32:38;;;;;;;;;;;;;;;21.06;27.58;97810.63;5122035;28;596;-75
2021/01/11 07:35:10;;;;;;;;;;;;;;;21.85;27.09;97812.00;5122021;28;663;-74
2021/01/11 07:37:36;;;;;;;;;;;;;;;22.44;26.09;97781.44;5122066;28;626;-75
2021/01/11 07:40:09;;;;;;;;;;;;;;;22.54;25.94;97763.25;5121609;28;998;-74
2021/01/11 07:42:40;;;;;;;;;;;;;;;22.61;26.13;97754.50;5121580;28;976;-75
2021/01/11 07:45:12;;;;;;;;;;;;;;;22.62;25.63;97737.00;5121745;28;700;-75
2021/01/11 07:47:52;;;;;;;;;;;;;;;21.73;26.74;97754.09;5116314;28;1518;-75
2021/01/11 07:50:27;;;;;;;;;;;;;;;21.75;26.70;97743.09;5114018;28;1976;-75
2021/01/11 07:52:58;;;;;;;;;;;;;;;21.26;28.05;97717.88;5121512;28;673;-75
2021/01/11 07:55:34;;;;;;;;;;;;;;;21.99;26.64;97723.72;5108601;28;1486;-75
2021/01/11 07:58:05;;;;;;;;;;;;;;;22.33;26.25;97748.56;5112171;28;1502;-75
2021/01/11 08:00:37;;;;;;;;;;;;;;;22.74;25.70;97772.28;5110025;28;1502;-75
2021/01/11 08:03:12;;;;;;;;;;;;;;;22.92;25.27;97762.38;5120253;28;1716;-75
2021/01/11 08:05:44;;;;;;;;;;;;;;;22.11;25.93;97776.00;5098166;28;1668;-74
2021/01/11 08:08:16;;;;;;;;;;;;;;;21.63;26.63;97775.03;5084351;28;685;-74
2021/01/11 08:10:48;;;;;;;;;;;;;;;21.39;27.06;97765.25;5084054;28;1886;-75
2021/01/11 08:13:14;;;;;;;;;;;;;;;22.15;26.71;97753.22;5082962;28;854;-75
2021/01/11 08:15:45;;;;;;;;;;;;;;;22.53;25.64;97775.81;5100808;28;696;-75
2021/01/11 08:18:17;;;;;;;;;;;;;;;22.91;25.28;97764.41;5106840;28;1387;-75
2021/01/11 08:20:49;;;;;;;;;;;;;;;22.93;25.13;97778.94;5084310;28;621;-75
2021/01/11 08:23:21;;;;;;;;;;;;;;;22.65;25.16;97792.03;5088582;28;986;-75
2021/01/11 08:26:00;;;;;;;;;;;;;;;21.63;26.78;97786.38;5100399;28;996;-75
2021/01/11 08:28:32;;;;;;;;;;;;;;;21.16;27.14;97757.81;5099590;28;945;-75
2021/01/11 08:31:04;;;;;;;;;;;;;;;21.74;26.81;97754.88;5099978;28;1933;-75
2021/01/11 08:33:38;;;;;;;;;;;;;;;22.34;25.80;97772.81;5100524;28;637;-75
2021/01/11 08:36:17;;;;;;;;;;;;;;;22.60;25.44;97761.41;5100472;28;698;-75
2021/01/11 08:39:05;;;;;;;;;;;;;;;22.60;25.57;97755.75;5100501;28;645;-75
2021/01/11 08:41:40;;;;;;;;;;;;;;;22.77;25.16;97728.81;5100341;28;1083;-75
2021/01/11 08:44:05;;;;;;;;;;;;;;;22.70;25.32;97726.22;5099549;28;941;-74
2021/01/11 08:46:56;;;;;;;;;;;;;;;22.21;25.46;97723.84;5100490;28;673;-75
2021/01/11 08:49:27;;;;;;;;;;;;;;;21.03;27.50;97721.78;5100405;28;660;-75
2021/01/11 08:52:06;;;;;;;;;;;;;;;21.62;26.56;97739.47;5101139;28;1965;-75
2021/01/11 08:54:37;;;;;;;;;;;;;;;22.01;26.38;97757.25;5110639;28;1569;-75
2021/01/11 08:57:13;;;;;;;;;;;;;;;22.52;25.38;97757.22;5120372;28;963;-75
2021/01/11 08:59:51;;;;;;;;;;;;;;;22.81;25.15;97759.88;5100541;28;1604;-74
2021/01/11 09:02:27;;;;;;;;;;;;;;;22.79;25.06;97754.66;5100230;28;641;-75
2021/01/11 09:05:11;;;;;;;;;;;;;;;22.47;25.20;97746.47;5103456;28;1404;-75
2021/01/11 09:07:43;;;;;;;;;;;;;;;21.04;27.25;97746.00;5108965;28;1568;-74
2021/01/11 09:10:21;;;;;;;;;;;;;;;20.96;27.44;97755.94;5117512;28;1901;-75
2021/01/11 09:12:53;;;;;;;;;;;;;;;22.06;26.30;97751.81;5108761;28;1612;-74
2021/01/11 09:15:26;;;;;;;;;;;;;;;22.32;25.90;97763.16;5099878;28;902;-74
2021/01/11 09:18:04;;;;;;;;;;;;;;;22.44;25.55;97776.53;5120264;28;1767;-75
2021/01/11 09:20:37;;;;;;;;;;;;;;;22.59;25.44;97797.50;5100359;28;640;-74
2021/01/11 09:23:23;;;;;;;;;;;;;;;22.69;24.87;97792.72;5103635;28;1139;-75
2021/01/11 09:25:55;;;;;;;;;;;;;;;21.77;26.28;97787.97;5104206;28;534;-75
2021/01/11 09:28:21;;;;;;;;;;;;;;;20.95;27.51;97804.47;5103916;28;966;-75
2021/01/11 09:30:53;;;;;;;;;;;;;;;21.71;26.74;97807.56;5103820;28;1999;-75
2021/01/11 09:33:24;;;;;;;;;;;;;;;22.29;26.00;97815.13;5104149;28;641;-75
2021/01/11 09:35:56;;;;;;;;;;;;;;;22.49;25.35;97826.22;5104125;28;653;-75
2021/01/11 09:38:28;;;;;;;;;;;;;;;22.65;25.00;97826.06;5104066;28;700;-75
2021/01/11 09:41:00;;;;;;;;;;;;;;;22.86;24.83;97816.81;5103885;28;651;-75
2021/01/11 09:43:32;;;;;;;;;;;;;;;22.29;25.57;97812.28;5103489;28;997;-75
2021/01/11 09:46:04;;;;;;;;;;;;;;;21.53;26.24;97815.78;5103408;28;950;-75
2021/01/11 09:48:37;;;;;;;;;;;;;;;21.26;26.82;97796.31;5103624;28;1530;-73
2021/01/11 09:51:08;;;;;;;;;;;;;;;22.14;26.14;97792.09;5118173;28;1965;-75
2021/01/11 09:53:40;;;;;;;;;;;;;;;22.58;25.19;97795.09;5103554;28;1506;-75
2021/01/11 09:56:12;;;;;;;;;;;;;;;22.90;24.70;97784.72;5103636;28;692;-75
2021/01/11 09:58:44;;;;;;;;;;;;;;;22.96;24.50;97782.91;5103161;28;831;-74
2021/01/11 10:01:16;;;;;;;;;;;;;;;22.83;24.69;97795.03;5103241;28;885;-75
2021/01/11 10:03:42;;;;;;;;;;;;;;;22.71;24.69;97790.19;5103470;28;909;-75
2021/01/11 10:06:13;;;;;;;;;;;;;;;20.76;27.81;97798.47;5103787;28;633;-75
2021/01/11 10:08:45;;;;;;;;;;;;;;;21.00;27.37;97806.75;5103398;28;710;-75
2021/01/11 10:11:18;;;;;;;;;;;;;;;21.92;26.65;97814.63;5103348;28;1961;-75
2021/01/11 10:13:58;;;;;;;;;;;;;;;22.23;25.79;97805.59;5103067;28;881;-75
2021/01/11 10:16:30;;;;;;;;;;;;;;;22.55;25.32;97813.84;5103043;28;963;-75
2021/01/11 10:19:02;;;;;;;;;;;;;;;22.71;24.93;97818.56;5103248;28;657;-75
2021/01/11 10:21:35;;;;;;;;;;;;;;;22.67;24.81;97820.72;5104235;28;1565;-75
2021/01/11 10:24:15;;;;;;;;;;;;;;;22.33;25.31;97821.47;5102764;28;1031;-75
2021/01/11 10:26:47;;;;;;;;;;;;;;;21.16;26.58;97808.72;5104292;28;1518;-75
2021/01/11 10:29:19;;;;;;;;;;;;;;;21.54;26.36;97837.97;5102772;28;982;-75
2021/01/11 10:31:51;;;;;;;;;;;;;;;22.25;25.74;97815.22;5102529;28;1977;-75
2021/01/11 10:34:23;;;;;;;;;;;;;;;22.57;25.23;97785.81;5101684;28;642;-75
2021/01/11 10:36:49;;;;;;;;;;;;;;;22.67;24.88;97783.84;5102785;28;664;-75
2021/01/11 10:39:22;;;;;;;;;;;;;;;22.78;24.69;97770.09;5102663;28;594;-75
2021/01/11 10:41:54;;;;;;;;;;;;;;;22.85;24.69;97786.88;5102641;28;630;-75
2021/01/11 10:44:28;;;;;;;;;;;;;;;22.12;25.80;97769.06;5102366;28;857;-75
2021/01/11 10:47:00;;;;;;;;;;;;;;;21.44;26.36;97787.34;5102249;28;874;-75
2021/01/11 10:49:32;;;;;;;;;;;;;;;21.70;26.89;97774.81;5102526;28;668;-76
2021/01/11 10:52:06;;;;;;;;;;;;;;;22.45;25.19;97763.16;5102455;28;1909;-75
2021/01/11 10:54:39;;;;;;;;;;;;;;;22.66;24.84;97770.13;5118358;28;1517;-75
2021/01/11 10:57:10;;;;;;;;;;;;;;;22.73;24.84;97765.00;5102392;28;888;-75
2021/01/11 10:59:42;;;;;;;;;;;;;;;22.79;24.96;97768.84;5102173;28;868;-75
2021/01/11 11:02:14;;;;;;;;;;;;;;;22.28;25.24;97766.13;5102199;28;923;-75
2021/01/11 11:04:46;;;;;;;;;;;;;;;21.12;26.86;97779.75;5103382;28;1502;-75
2021/01/11 11:07:18;;;;;;;;;;;;;;;21.24;26.87;97754.34;5102459;28;617;-74
2021/01/11 11:09:44;;;;;;;;;;;;;;;21.88;26.46;97740.28;5102208;28;653;-75
2021/01/11 11:12:15;;;;;;;;;;;;;;;22.52;25.41;97737.38;5102111;28;1918;-75
2021/01/11 11:14:47;;;;;;;;;;;;;;;22.71;25.05;97755.38;5102839;28;1569;-75
2021/01/11 11:17:19;;;;;;;;;;;;;;;22.60;25.17;97761.41;5101759;28;885;-75
2021/01/11 11:19:51;;;;;;;;;;;;;;;22.84;24.91;97754.06;5101973;28;679;-75
2021/01/11 11:22:23;;;;;;;;;;;;;;;22.63;24.75;97732.91;5101900;28;666;-75
2021/01/11 11:25:05;;;;;;;;;;;;;;;22.21;25.63;97754.22;5102701;28;1439;-75
2021/01/11 11:27:37;;;;;;;;;;;;;;;20.67;27.64;97761.53;5116345;28;1506;-76
2021/01/11 11:30:10;;;;;;;;;;;;;;;21.64;26.53;97765.28;5121883;28;1898;-74
2021/01/11 11:32:45;;;;;;;;;;;;;;;22.19;25.96;97771.69;5121816;28;888;-75
2021/01/11 11:35:18;;;;;;;;;;;;;;;22.54;25.38;97780.28;5120356;28;1656;-75
2021/01/11 11:37:49;;;;;;;;;;;;;;;22.48;25.55;97782.06;5122001;28;598;-75
2021/01/11 11:40:21;;;;;;;;;;;;;;;22.58;25.23;97775.25;5121985;28;657;-75
2021/01/11 11:42:55;;;;;;;;;;;;;;;22.80;24.89;97764.78;5121990;28;638;-75
2021/01/11 11:45:26;;;;;;;;;;;;;;;21.75;26.20;97765.75;5119669;28;1685;-75
2021/01/11 11:47:52;;;;;;;;;;;;;;;20.73;27.81;97776.75;5120971;28;2044;-75
2021/01/11 11:50:23;;;;;;;;;;;;;;;21.57;26.67;97782.50;5106287;28;1987;-75
2021/01/11 11:52:55;;;;;;;;;;;;;;;22.03;26.17;97785.97;5101397;28;602;-75
2021/01/11 11:55:27;;;;;;;;;;;;;;;22.39;25.54;97784.84;5101276;28;705;-75
2021/01/11 11:58:00;;;;;;;;;;;;;;;22.54;25.19;97774.59;5101199;28;646;-75
2021/01/11 12:00:31;;;;;;;;;;;;;;;22.64;25.17;97779.13;5101107;28;1593;-75
2021/01/11 12:03:03;;;;;;;;;;;;;;;22.79;24.99;97777.34;5105988;28;1386;-75
2021/01/11 12:05:35;;;;;;;;;;;;;;;22.39;25.35;97810.34;5121518;28;661;-75
2021/01/11 12:08:07;;;;;;;;;;;;;;;21.24;26.89;97805.28;5121373;28;657;-75
2021/01/11 12:10:39;;;;;;;;;;;;;;;21.47;26.54;97809.09;5121387;28;1906;-75
2021/01/11 12:13:11;;;;;;;;;;;;;;;22.01;26.37;97814.72;5119585;28;1514;-75
2021/01/11 12:15:43;;;;;;;;;;;;;;;22.31;25.77;97806.94;5121386;28;974;-74
2021/01/11 12:18:15;;;;;;;;;;;;;;;22.52;25.39;97817.56;5120905;28;832;-74
2021/01/11 12:20:49;;;;;;;;;;;;;;;22.81;24.78;97811.72;5121640;28;667;-75
2021/01/11 12:23:16;;;;;;;;;;;;;;;22.81;24.98;97811.72;5119290;28;1542;-75
2021/01/11 12:25:47;;;;;;;;;;;;;;;22.77;25.02;97811.06;5121065;28;725;-75
2021/01/11 12:28:19;;;;;;;;;;;;;;;21.50;26.66;97811.00;5121121;28;757;-75
2021/01/11 12:30:51;;;;;;;;;;;;;;;20.74;27.96;97825.63;5120714;28;1977;-75
2021/01/11 12:33:23;;;;;;;;;;;;;;;21.14;27.20;97820.50;5118953;28;1553;-75
2021/01/11 12:35:55;;;;;;;;;;;;;;;22.22;26.16;97827.44;5121017;28;633;-75
2021/01/11 12:38:27;;;;;;;;;;;;;;;22.47;25.30;97820.19;5120888;28;705;-76
2021/01/11 12:40:59;;;;;;;;;;;;;;;22.68;25.20;97813.78;5120945;28;657;-75
2021/01/11 12:43:31;;;;;;;;;;;;;;;22.76;24.92;97815.16;5101834;28;1601;-76
2021/01/11 12:46:08;;;;;;;;;;;;;;;22.81;24.81;97822.28;5114681;28;1530;-75
2021/01/11 12:48:40;;;;;;;;;;;;;;;22.72;24.80;97820.16;5113745;28;1530;-75
2021/01/11 12:51:30;;;;;;;;;;;;;;;21.37;27.03;97822.31;5083938;28;1887;-75
2021/01/11 12:54:02;;;;;;;;;;;;;;;21.64;26.34;97809.81;5104046;28;1580;-74
2021/01/11 12:56:34;;;;;;;;;;;;;;;21.68;26.36;97816.16;5103431;28;682;-74
2021/01/11 12:59:06;;;;;;;;;;;;;;;21.85;26.30;97812.78;5118949;28;1502;-74
2021/01/11 13:01:32;;;;;;;;;;;;;;;22.36;25.84;97812.81;5118769;28;1494;-75
2021/01/11 13:04:04;;;;;;;;;;;;;;;22.57;25.16;97813.38;5112647;28;1574;-75
2021/01/11 13:06:39;;;;;;;;;;;;;;;22.54;25.36;97819.97;5118808;28;1450;-75
2021/01/11 13:09:10;;;;;;;;;;;;;;;22.55;25.30;97838.56;5120587;28;671;-75
2021/01/11 13:11:42;;;;;;;;;;;;;;;23.04;24.46;97835.28;5111594;28;1905;-75
2021/01/11 13:14:19;;;;;;;;;;;;;;;21.79;26.16;97840.09;5100112;28;638;-75